Time;durP1;ratioP1;P1;durP2;ratioP2;P2;SDS_P1;SDS_P2;PMS_P1;PMS_P2;Temp;Humidity;BMP_temperature;BMP_pressure;BME280_temperature;BME280_humidity;BME280_pressure;Samples;Min_cycle;Max_cycle;Signal;HPM_P1;HPM_P2
2022/09/20 00:02:32;;;;;;;8.43;2.70;;;;;;;7.47;100.00;101068.03;5070229;28;20403;-85
2022/09/20 00:05:01;;;;;;;6.03;2.67;;;;;;;7.49;100.00;101084.84;5047734;28;20776;-84
2022/09/20 00:07:34;;;;;;;9.88;3.10;;;;;;;7.49;100.00;101084.84;5048636;28;20444;-84
2022/09/20 00:10:08;;;;;;;9.23;2.72;;;;;;;7.56;100.00;101084.69;5075117;28;20419;-85
2022/09/20 00:12:41;;;;;;;8.60;2.85;;;;;;;7.49;100.00;101087.56;5054543;28;20432;-84
2022/09/20 00:15:14;;;;;;;5.97;3.03;;;;;;;7.47;100.00;101089.72;5066220;28;20427;-85
2022/09/20 00:17:42;;;;;;;5.90;2.57;;;;;;;7.40;100.00;101090.94;5041065;28;20427;-85
2022/09/20 00:20:16;;;;;;;9.70;2.70;;;;;;;7.41;100.00;101092.59;5045424;28;20418;-85
2022/09/20 00:22:50;;;;;;;7.63;2.67;;;;;;;7.37;100.00;101097.66;5046708;28;20423;-86
2022/09/20 00:25:23;;;;;;;8.80;2.75;;;;;;;7.37;100.00;101096.84;5070457;28;20411;-86
2022/09/20 00:27:56;;;;;;;7.30;2.50;;;;;;;7.36;100.00;101096.06;5080026;28;20922;-85
2022/09/20 00:30:30;;;;;;;7.03;2.58;;;;;;;7.28;100.00;101091.84;5080584;28;20430;-85
2022/09/20 00:32:58;;;;;;;10.82;2.83;;;;;;;7.26;100.00;101096.69;5051686;28;20424;-86
2022/09/20 00:35:32;;;;;;;6.25;2.47;;;;;;;7.36;100.00;101100.63;5061784;28;20427;-85
2022/09/20 00:38:05;;;;;;;7.70;2.50;;;;;;;7.37;100.00;101100.38;5036216;28;20436;-84
2022/09/20 00:40:38;;;;;;;7.60;2.58;;;;;;;7.40;100.00;101085.53;5076184;28;20452;-85
2022/09/20 00:43:14;;;;;;;6.22;2.30;;;;;;;7.36;100.00;101087.94;5073469;28;20433;-85
2022/09/20 00:45:49;;;;;;;9.40;2.50;;;;;;;7.39;100.00;101097.41;5049505;28;20422;-85
2022/09/20 00:48:29;;;;;;;8.75;2.80;;;;;;;7.38;100.00;101095.78;5059567;28;20985;-85
2022/09/20 00:51:09;;;;;;;8.23;2.50;;;;;;;7.34;100.00;101098.16;5054758;28;20418;-85
2022/09/20 00:53:48;;;;;;;9.57;2.55;;;;;;;7.30;100.00;101092.41;5065117;28;20423;-85
2022/09/20 00:56:21;;;;;;;8.18;2.55;;;;;;;7.38;100.00;101096.59;5051706;28;20434;-84
2022/09/20 00:59:06;;;;;;;8.15;2.42;;;;;;;7.37;100.00;101100.38;5065394;28;20889;-85
2022/09/20 01:01:39;;;;;;;11.65;3.05;;;;;;;7.07;100.00;101068.25;5065670;28;20423;-84
2022/09/20 01:04:08;;;;;;;5.72;2.60;;;;;;;7.21;100.00;101091.22;5082028;28;20415;-85
2022/09/20 01:06:44;;;;;;;11.00;2.85;;;;;;;7.36;100.00;101101.47;5054085;28;20907;-85
2022/09/20 01:09:17;;;;;;;8.55;2.80;;;;;;;7.36;100.00;101101.47;5044945;28;20931;-85
2022/09/20 01:11:54;;;;;;;7.95;2.80;;;;;;;7.38;100.00;101101.22;5072029;28;20406;-85
2022/09/20 01:14:23;;;;;;;8.75;2.97;;;;;;;7.38;100.00;101104.72;5047139;28;20527;-83
2022/09/20 01:16:59;;;;;;;7.80;2.85;;;;;;;7.38;100.00;101101.22;5061184;28;20417;-85
2022/09/20 01:19:39;;;;;;;10.90;3.00;;;;;;;7.38;100.00;101095.78;5070680;28;20418;-84
2022/09/20 01:22:22;;;;;;;13.23;3.00;;;;;;;7.38;100.00;101104.72;5049555;28;20429;-85
2022/09/20 01:25:00;;;;;;;10.67;2.97;;;;;;;7.35;100.00;101101.69;5045820;28;20482;-84
2022/09/20 01:27:41;;;;;;;13.93;3.10;;;;;;;7.34;100.00;101100.06;5038408;28;20417;-85
2022/09/20 01:30:18;;;;;;;9.38;2.90;;;;;;;7.35;100.00;101099.81;5059307;28;20444;-85
2022/09/20 01:32:57;;;;;;;9.03;3.00;;;;;;;7.39;100.00;101106.38;5064700;28;20759;-85
2022/09/20 01:35:34;;;;;;;8.73;3.30;;;;;;;7.34;100.00;101108.19;5058954;28;20796;-84
2022/09/20 01:38:14;;;;;;;10.02;3.15;;;;;;;7.35;100.00;101107.09;5080946;28;20781;-85
2022/09/20 01:40:56;;;;;;;13.60;3.13;;;;;;;7.31;100.00;101098.66;5078385;28;20753;-85
2022/09/20 01:43:36;;;;;;;9.27;3.22;;;;;;;7.25;100.00;101097.78;5048391;28;20420;-86
2022/09/20 01:46:22;;;;;;;7.68;3.10;;;;;;;7.28;100.00;101101.88;5086181;28;20412;-85
2022/09/20 01:48:56;;;;;;;11.48;3.20;;;;;;;7.24;100.00;101108.84;5060939;28;20429;-84
2022/09/20 01:51:55;;;;;;;10.95;3.30;;;;;;;7.25;100.00;101108.59;5042692;28;20422;-85
2022/09/20 01:54:56;;;;;;;9.50;3.20;;;;;;;7.22;100.00;101119.09;5095538;28;20427;-85
2022/09/20 01:58:07;;;;;;;10.02;3.25;;;;;;;7.20;100.00;101113.94;5049436;28;20432;-85
2022/09/20 02:01:02;;;;;;;9.27;3.17;;;;;;;7.19;100.00;101111.47;5054345;28;20434;-85
2022/09/20 02:03:59;;;;;;;8.57;3.00;;;;;;;7.09;100.00;101115.66;5084360;28;20426;-85
2022/09/20 02:06:47;;;;;;;7.05;3.03;;;;;;;7.05;100.00;101119.91;5072763;28;20411;-84
2022/09/20 02:09:37;;;;;;;7.90;3.03;;;;;;;7.02;100.00;101122.31;5072882;28;20414;-85
2022/09/20 02:12:28;;;;;;;9.00;3.13;;;;;;;6.98;100.00;101120.06;5070799;28;20791;-85
2022/09/20 02:15:13;;;;;;;10.00;3.47;;;;;;;7.06;100.00;101129.69;5067359;28;20605;-85
2022/09/20 02:17:53;;;;;;;9.77;3.15;;;;;;;6.99;100.00;101126.31;5049917;28;20436;-85
2022/09/20 02:20:33;;;;;;;12.98;3.13;;;;;;;6.97;100.00;101121.16;5061037;28;20436;-85
2022/09/20 02:23:17;;;;;;;10.02;3.13;;;;;;;7.01;100.00;101131.47;5072896;28;20438;-86
2022/09/20 02:26:09;;;;;;;10.43;3.00;;;;;;;6.90;100.00;101125.06;5050651;28;20429;-85
2022/09/20 02:28:55;;;;;;;8.77;3.00;;;;;;;6.91;100.00;101124.81;5061879;28;20426;-85
2022/09/20 02:31:44;;;;;;;7.93;2.83;;;;;;;6.80;100.00;101123.81;5066935;28;21068;-85
2022/09/20 02:34:42;;;;;;;10.90;2.75;;;;;;;6.86;100.00;101123.91;5070338;28;20431;-85
2022/09/20 02:37:46;;;;;;;6.78;2.30;;;;;;;6.84;100.00;101131.47;5049434;28;20440;-86
2022/09/20 02:40:32;;;;;;;10.17;3.00;;;;;;;6.87;100.00;101139.09;5076778;28;20414;-85
2022/09/20 02:43:14;;;;;;;10.55;2.88;;;;;;;6.79;100.00;101132.19;5070717;28;20411;-84
2022/09/20 02:45:50;;;;;;;6.97;2.43;;;;;;;6.74;100.00;101137.50;5062445;28;20430;-85
2022/09/20 02:48:30;;;;;;;7.47;2.60;;;;;;;6.73;100.00;101130.47;5064167;28;20429;-85
2022/09/20 02:51:12;;;;;;;6.55;2.55;;;;;;;6.72;100.00;101129.63;5055632;28;20428;-85
2022/09/20 02:53:51;;;;;;;8.70;2.50;;;;;;;6.68;100.00;101138.47;5070562;28;20416;-83
2022/09/20 02:56:33;;;;;;;9.27;2.63;;;;;;;6.66;100.00;101148.69;5066402;28;20428;-84
2022/09/20 02:59:20;;;;;;;9.60;2.97;;;;;;;6.60;100.00;101139.66;5060862;28;20431;-85
2022/09/20 03:02:06;;;;;;;9.20;2.60;;;;;;;6.69;100.00;101148.25;5065651;28;20788;-84
2022/09/20 03:04:45;;;;;;;11.05;2.70;;;;;;;6.53;100.00;101147.13;5056185;28;20448;-83
2022/09/20 03:07:33;;;;;;;8.82;2.58;;;;;;;6.58;100.00;101149.91;5070675;28;20422;-84
2022/09/20 03:10:15;;;;;;;6.63;2.45;;;;;;;6.58;100.00;101153.44;5065903;28;20900;-84
2022/09/20 03:12:57;;;;;;;8.70;2.85;;;;;;;6.53;100.00;101160.63;5065187;28;20419;-85
2022/09/20 03:15:40;;;;;;;9.57;2.85;;;;;;;6.37;100.00;101140.59;5049872;28;20432;-84
2022/09/20 03:18:16;;;;;;;7.30;2.40;;;;;;;6.50;100.00;101161.94;5057938;28;20924;-84
2022/09/20 03:21:00;;;;;;;7.85;2.63;;;;;;;6.38;100.00;101145.78;5058146;28;20419;-86
2022/09/20 03:23:49;;;;;;;8.40;3.05;;;;;;;6.50;100.00;101164.63;5086944;28;20431;-84
2022/09/20 03:26:38;;;;;;;7.90;2.70;;;;;;;6.46;100.00;101158.91;5087152;28;20413;-84
2022/09/20 03:29:27;;;;;;;6.43;2.40;;;;;;;6.43;100.00;101163.97;5064661;28;20476;-85
2022/09/20 03:32:12;;;;;;;7.47;2.55;;;;;;;6.39;100.00;101163.59;5050161;28;20443;-85
2022/09/20 03:34:56;;;;;;;7.50;2.72;;;;;;;6.37;100.00;101176.56;5055087;28;20791;-83
2022/09/20 03:37:46;;;;;;;6.40;2.30;;;;;;;6.29;100.00;101169.63;5047771;28;20448;-83
2022/09/20 03:40:41;;;;;;;6.85;2.40;;;;;;;6.37;100.00;101181.97;5062172;28;20781;-84
2022/09/20 03:43:27;;;;;;;6.47;2.47;;;;;;;6.27;100.00;101174.47;5071994;28;20454;-84
2022/09/20 03:46:08;;;;;;;7.60;2.50;;;;;;;6.05;100.00;101149.13;5060496;28;20398;-85
2022/09/20 03:49:05;;;;;;;6.57;2.42;;;;;;;6.33;100.00;101193.50;5074185;28;20430;-84
2022/09/20 03:51:48;;;;;;;6.60;2.35;;;;;;;6.29;100.00;101188.56;5064177;28;20424;-83
2022/09/20 03:54:50;;;;;;;9.23;2.60;;;;;;;6.27;100.00;101189.84;5061893;28;20792;-85
2022/09/20 03:57:37;;;;;;;6.70;2.40;;;;;;;6.16;100.00;101167.22;5046096;28;20431;-84
2022/09/20 04:00:22;;;;;;;7.72;2.70;;;;;;;6.28;100.00;101200.44;5073060;28;20932;-85
2022/09/20 04:03:10;;;;;;;8.35;2.50;;;;;;;6.10;100.00;101178.97;5047182;28;20438;-84
2022/09/20 04:05:50;;;;;;;6.20;2.30;;;;;;;6.22;100.00;101184.34;5075950;28;20431;-84
2022/09/20 04:08:44;;;;;;;6.47;2.53;;;;;;;6.24;100.00;101191.16;5049691;28;20417;-83
2022/09/20 04:11:26;;;;;;;5.85;2.10;;;;;;;6.25;100.00;101194.69;5064867;28;20441;-84
2022/09/20 04:14:02;;;;;;;4.70;2.23;;;;;;;6.23;100.00;101192.22;5045793;28;20879;-83
2022/09/20 04:16:42;;;;;;;7.40;2.30;;;;;;;6.21;100.00;101196.22;5061471;28;20430;-83
2022/09/20 04:19:24;;;;;;;6.60;2.42;;;;;;;6.13;100.00;101206.34;5048261;28;20425;-84
2022/09/20 04:21:58;;;;;;;8.35;2.67;;;;;;;6.09;100.00;101196.22;5062613;28;20423;-84
2022/09/20 04:24:40;;;;;;;5.97;2.78;;;;;;;5.96;100.00;101198.09;5068645;28;20407;-84
2022/09/20 04:27:14;;;;;;;5.82;2.30;;;;;;;5.94;100.00;101200.22;5046676;28;20439;-86
2022/09/20 04:29:52;;;;;;;5.75;2.33;;;;;;;5.99;100.00;101207.63;5063673;28;20416;-85
2022/09/20 04:32:31;;;;;;;8.52;2.60;;;;;;;6.02;100.00;101204.47;5059358;28;20788;-84
2022/09/20 04:37:56;;;;;;;5.63;2.50;;;;;;;6.04;100.00;101201.53;5047368;28;20419;-84
2022/09/20 04:40:48;;;;;;;8.52;2.58;;;;;;;6.03;100.00;101213.41;5060851;28;20417;-84
2022/09/20 04:43:51;;;;;;;12.05;2.40;;;;;;;6.00;100.00;101219.28;5079777;28;20457;-84
2022/09/20 04:46:53;;;;;;;8.20;2.57;;;;;;;5.88;100.00;101214.69;5045178;28;20819;-84
2022/09/20 04:49:53;;;;;;;7.32;2.63;;;;;;;5.87;100.00;101217.59;5078320;28;20410;-83
2022/09/20 04:53:02;;;;;;;7.25;2.33;;;;;;;5.93;100.00;101220.19;5059985;28;20423;-85
2022/09/20 04:55:56;;;;;;;7.10;2.55;;;;;;;5.89;100.00;101219.00;5056452;28;20431;-84
2022/09/20 04:58:37;;;;;;;6.45;2.42;;;;;;;5.92;100.00;101228.53;5070480;28;20421;-83
2022/09/20 05:02:02;;;;;;;8.98;2.40;;;;;;;5.96;100.00;101233.22;5062209;28;20424;-83
2022/09/20 05:05:26;;;;;;;7.80;2.83;;;;;;;5.89;100.00;101226.28;5067546;28;20439;-84
2022/09/20 05:08:32;;;;;;;6.90;2.55;;;;;;;5.93;100.00;101230.16;5064380;28;20794;-84
2022/09/20 05:11:33;;;;;;;7.25;2.80;;;;;;;5.96;100.00;101240.50;5040768;28;20784;-84
2022/09/20 05:14:35;;;;;;;6.18;2.80;;;;;;;5.91;100.00;101237.66;5060677;28;20412;-84
2022/09/20 05:17:21;;;;;;;5.50;2.60;;;;;;;5.84;100.00;101240.50;5041223;28;20421;-83
2022/09/20 05:20:17;;;;;;;6.95;2.83;;;;;;;5.89;100.00;101248.72;5065852;28;20418;-84
2022/09/20 05:23:16;;;;;;;6.80;3.23;;;;;;;5.79;100.00;101243.09;5045278;28;20430;-85
2022/09/20 05:26:03;;;;;;;11.73;3.60;;;;;;;5.81;100.00;101243.66;5057725;28;20428;-84
2022/09/20 05:28:48;;;;;;;8.40;3.17;;;;;;;5.97;100.00;101258.38;5063390;28;20415;-83
2022/09/20 05:31:32;;;;;;;8.20;3.00;;;;;;;6.04;100.00;101248.28;5055119;28;20418;-83
2022/09/20 05:34:18;;;;;;;6.80;2.85;;;;;;;6.09;100.00;101250.28;5063113;28;20429;-85
2022/09/20 05:36:59;;;;;;;6.13;2.70;;;;;;;6.18;100.00;101254.25;5071777;28;20723;-84
2022/09/20 05:39:37;;;;;;;5.45;2.55;;;;;;;6.20;100.00;101262.97;5075547;28;20426;-83
2022/09/20 05:42:18;;;;;;;7.50;2.80;;;;;;;6.24;100.00;101252.50;5059790;28;20430;-84
2022/09/20 05:45:00;;;;;;;8.27;2.55;;;;;;;6.37;100.00;101263.06;5057303;28;20429;-84
2022/09/20 05:47:40;;;;;;;5.88;2.80;;;;;;;6.29;100.00;101256.13;5076778;28;20963;-84
2022/09/20 05:50:33;;;;;;;8.20;2.80;;;;;;;6.46;100.00;101280.56;5048341;28;20421;-83
2022/09/20 05:53:45;;;;;;;6.65;2.63;;;;;;;6.54;100.00;101270.44;5056208;28;20417;-83
2022/09/20 05:56:20;;;;;;;6.60;2.60;;;;;;;6.46;100.00;101260.81;5038068;28;20426;-83
2022/09/20 05:59:10;;;;;;;6.10;2.47;;;;;;;6.59;100.00;101275.97;5066872;28;20430;-83
2022/09/20 06:01:58;;;;;;;5.15;2.55;;;;;;;6.59;100.00;101284.91;5046099;28;20450;-84
2022/09/20 06:04:34;;;;;;;6.30;2.33;;;;;;;6.67;100.00;101294.53;5056493;28;20429;-83
2022/09/20 06:07:10;;;;;;;6.40;2.40;;;;;;;6.73;100.00;101285.44;5072254;28;20420;-83
2022/09/20 06:09:57;;;;;;;6.07;2.40;;;;;;;6.76;100.00;101286.84;5048758;28;20428;-83
2022/09/20 06:12:47;;;;;;;5.63;2.50;;;;;;;6.71;100.00;101289.44;5048433;28;20429;-83
2022/09/20 06:15:27;;;;;;;5.20;2.33;;;;;;;6.81;100.00;101292.38;5041700;28;20425;-85
2022/09/20 06:18:09;;;;;;;5.45;2.30;;;;;;;6.76;100.00;101268.72;5060097;28;20427;-84
2022/09/20 06:20:51;;;;;;;8.05;2.50;;;;;;;7.00;100.00;101287.59;5043833;28;20775;-84
2022/09/20 06:23:22;;;;;;;5.38;2.17;;;;;;;7.04;100.00;101294.16;5080169;28;20435;-84
2022/09/20 06:25:56;;;;;;;7.72;2.60;;;;;;;7.15;100.00;101292.50;5053339;28;20878;-85
2022/09/20 06:28:33;;;;;;;4.47;2.13;;;;;;;7.27;100.00;101290.56;5073289;28;20399;-84
2022/09/20 06:31:08;;;;;;;6.30;2.00;;;;;;;7.31;100.00;101289.00;5060569;28;20424;-86
2022/09/20 06:33:44;;;;;;;4.95;2.40;;;;;;;7.36;100.00;101295.56;5045023;28;20427;-84
2022/09/20 06:42:13;;;;;;;7.70;2.28;;;;;;;7.59;100.00;101298.16;5052049;28;20412;-83
2022/09/20 06:44:42;;;;;;;7.72;2.22;;;;;;;7.69;100.00;101291.28;5054118;28;20452;-84
2022/09/20 06:47:11;;;;;;;5.57;2.08;;;;;;;7.70;100.00;101299.16;5060316;28;20926;-84
2022/09/20 06:49:41;;;;;;;6.88;2.10;;;;;;;7.80;100.00;101296.63;5054221;28;20415;-85
2022/09/20 06:52:15;;;;;;;3.65;1.70;;;;;;;7.87;100.00;101298.34;5028046;28;20909;-85
2022/09/20 06:54:46;;;;;;;9.07;1.88;;;;;;;7.97;100.00;101306.66;5046888;28;20432;-86
2022/09/20 06:57:24;;;;;;;6.45;1.75;;;;;;;8.02;100.00;101308.59;5039478;28;20424;-85
2022/09/20 06:59:52;;;;;;;5.80;1.73;;;;;;;8.06;100.00;101305.16;5047374;28;20499;-85
2022/09/20 07:02:20;;;;;;;5.70;1.63;;;;;;;8.09;100.00;101312.81;5048112;28;20446;-85
2022/09/20 07:04:58;;;;;;;5.05;1.55;;;;;;;8.21;100.00;101312.69;5047839;28;20436;-84
2022/09/20 07:07:31;;;;;;;8.18;1.80;;;;;;;8.29;100.00;101315.00;5066090;28;20420;-89
2022/09/20 07:10:00;;;;;;;5.35;1.67;;;;;;;8.34;100.00;101317.78;5048749;28;20427;-85
2022/09/20 07:12:33;;;;;;;4.07;1.40;;;;;;;8.46;100.00;101322.31;5048376;28;20446;-85
2022/09/20 07:15:02;;;;;;;7.27;1.70;;;;;;;8.32;100.00;101291.97;5047111;28;20414;-87
2022/09/20 07:17:35;;;;;;;8.30;1.80;;;;;;;8.72;100.00;101328.09;5048776;28;20423;-86
2022/09/20 07:20:09;;;;;;;5.43;1.50;;;;;;;8.72;100.00;101330.81;5058236;28;20420;-86
2022/09/20 07:22:37;;;;;;;5.57;1.60;;;;;;;8.78;100.00;101327.06;5029159;28;20443;-84
2022/09/20 07:25:07;;;;;;;5.65;1.55;;;;;;;8.84;100.00;101334.22;5023866;28;21271;-84
2022/09/20 07:27:41;;;;;;;8.48;1.67;;;;;;;8.98;100.00;101342.81;5032587;28;20427;-83
2022/09/20 07:30:14;;;;;;;7.35;1.70;;;;;;;8.89;100.00;101353.28;5046539;28;20420;-84
2022/09/20 07:32:47;;;;;;;9.23;1.67;;;;;;;8.82;100.00;101331.75;5030699;28;21049;-87
2022/09/20 07:35:16;;;;;;;9.27;1.60;;;;;;;9.13;100.00;101359.28;5047572;28;20442;-86
2022/09/20 07:37:56;;;;;;;6.65;1.67;;;;;;;9.10;100.00;101365.22;5052037;28;21456;-86
2022/09/20 07:40:30;;;;;;;9.03;1.50;;;;;;;9.10;100.00;101354.38;5044815;28;20472;-86
2022/09/20 07:43:04;;;;;;;10.30;1.85;;;;;;;9.12;100.00;101344.06;5064075;28;20430;-87
2022/09/20 07:45:33;;;;;;;6.47;1.52;;;;;;;9.32;100.00;101362.50;5049316;28;20431;-86
2022/09/20 07:48:07;;;;;;;10.15;1.63;;;;;;;9.43;100.00;101377.00;5051259;28;20435;-86
2022/09/20 07:50:40;;;;;;;6.82;1.30;;;;;;;9.58;100.00;101376.34;5037241;28;20411;-83
2022/09/20 07:53:13;;;;;;;8.32;1.70;;;;;;;9.63;100.00;101383.72;5054993;28;20426;-85
2022/09/20 07:55:58;;;;;;;7.10;1.50;;;;;;;9.74;100.00;101385.47;5033276;28;20939;-85
2022/09/20 07:58:27;;;;;;;7.22;1.40;;;;;;;9.72;100.00;101382.16;5054590;28;20431;-87
2022/09/20 08:00:56;;;;;;;9.43;1.53;;;;;;;9.91;100.00;101384.53;5069572;28;20430;-84
2022/09/20 08:03:30;;;;;;;7.60;1.33;;;;;;;9.81;100.00;101386.09;5027053;28;20427;-86
2022/09/20 08:06:05;;;;;;;9.27;1.65;;;;;;;9.95;100.00;101385.66;5041216;28;20434;-85
2022/09/20 08:08:40;;;;;;;8.02;1.65;;;;;;;9.88;100.00;101359.50;5032532;28;20423;-86
2022/09/20 08:11:16;;;;;;;6.32;1.30;;;;;;;10.09;100.00;101402.38;5046994;28;20859;-85
2022/09/20 08:13:50;;;;;;;10.47;1.40;;;;;;;9.95;100.00;101385.66;5045685;28;20423;-85
2022/09/20 08:16:24;;;;;;;5.68;1.42;;;;;;;10.24;100.00;101401.69;5024262;28;20427;-86
2022/09/20 08:18:58;;;;;;;8.27;1.20;;;;;;;10.04;100.00;101400.44;5023634;28;20600;-87
2022/09/20 08:21:34;;;;;;;12.98;1.40;;;;;;;10.17;100.00;101407.34;5044694;28;20427;-85
2022/09/20 08:24:07;;;;;;;7.13;1.33;;;;;;;10.16;100.00;101414.69;5045754;28;20436;-86
2022/09/20 08:26:42;;;;;;;7.32;1.35;;;;;;;10.34;100.00;101415.34;5042013;28;20458;-84
2022/09/20 08:29:15;;;;;;;8.10;1.27;;;;;;;10.40;100.00;101414.38;5022871;28;20635;-83
2022/09/20 08:31:44;;;;;;;8.57;1.38;;;;;;;10.38;100.00;101424.66;5039257;28;20427;-84
2022/09/20 08:34:17;;;;;;;7.13;1.23;;;;;;;10.52;100.00;101430.50;5037926;28;20415;-86
2022/09/20 08:36:51;;;;;;;6.93;1.30;;;;;;;10.59;100.00;101427.53;5021459;28;20434;-86
2022/09/20 08:39:25;;;;;;;8.30;1.40;;;;;;;10.61;100.00;101418.03;5057821;28;20416;-85
2022/09/20 08:41:58;;;;;;;9.00;1.30;;;;;;;10.81;100.00;101427.41;5020055;28;20438;-85
2022/09/20 08:44:34;;;;;;;10.20;1.60;;;;;;;10.75;100.00;101415.69;5035918;28;20989;-86
2022/09/20 08:47:08;;;;;;;8.00;1.35;;;;;;;10.88;100.00;101423.41;5024242;28;20427;-85
2022/09/20 08:49:43;;;;;;;6.20;1.17;;;;;;;10.89;100.00;101427.72;5041948;28;20919;-89
2022/09/20 08:52:17;;;;;;;6.07;1.17;;;;;;;10.88;100.00;101411.66;5002045;28;20432;-84
2022/09/20 08:54:46;;;;;;;8.85;1.25;;;;;;;11.01;100.00;101426.72;5026991;28;20426;-84
2022/09/20 08:57:18;;;;;;;10.32;1.42;;;;;;;11.24;100.00;101428.19;5019262;28;20424;-84
2022/09/20 08:59:51;;;;;;;7.88;1.60;;;;;;;11.31;100.00;101426.06;5019205;28;20446;-84
2022/09/20 09:02:21;;;;;;;5.40;1.20;;;;;;;11.28;100.00;101428.47;5025238;28;20427;-84
2022/09/20 09:04:54;;;;;;;7.70;1.47;;;;;;;11.03;100.00;101425.38;5046753;28;20431;-86
2022/09/20 09:07:24;;;;;;;6.55;1.20;;;;;;;11.11;100.00;101432.22;5018017;28;20950;-84
2022/09/20 09:09:55;;;;;;;10.35;1.30;;;;;;;11.17;100.00;101419.44;5020811;28;20427;-84
2022/09/20 09:12:29;;;;;;;9.82;1.35;;;;;;;11.37;100.00;101440.50;5045205;28;20426;-84
2022/09/20 09:15:28;;;;;;;10.88;1.30;;;;;;;11.39;100.00;101439.16;5038911;28;20481;-85
2022/09/20 09:17:56;;;;;;;5.13;1.00;;;;;;;11.67;100.00;101445.25;5017074;28;20435;-84
2022/09/20 09:20:41;;;;;;;8.02;1.30;;;;;;;11.52;100.00;101437.03;5026459;28;20419;-84
2022/09/20 09:23:24;;;;;;;7.80;1.40;;;;;;;11.46;100.00;101438.94;5028523;28;20931;-85
2022/09/20 09:25:54;;;;;;;6.22;1.20;;;;;;;11.54;100.00;101443.03;5041692;28;20889;-83
2022/09/20 09:28:30;;;;;;;9.15;1.40;;;;;;;11.59;100.00;101445.78;5027355;28;20419;-86
2022/09/20 09:31:20;;;;;;;6.97;1.02;;;;;;;11.72;100.00;101433.53;5040616;28;20467;-84
2022/09/20 09:33:48;;;;;;;7.50;1.33;;;;;;;11.64;100.00;101448.53;5022045;28;20427;-85
2022/09/20 09:36:24;;;;;;;11.60;1.50;;;;;;;11.72;100.00;101444.44;5026194;28;20462;-84
2022/09/20 09:39:15;;;;;;;9.50;1.50;;;;;;;11.57;100.00;101447.94;5028364;28;20566;-85
2022/09/20 09:41:48;;;;;;;7.60;1.23;;;;;;;11.67;100.00;101455.31;5034767;28;20738;-85
2022/09/20 09:44:26;;;;;;;5.88;1.05;;;;;;;11.71;100.00;101449.09;5022993;28;20993;-87
2022/09/20 09:46:56;;;;;;;9.02;1.25;;;;;;;11.74;100.00;101448.53;5021003;28;20400;-84
2022/09/20 09:49:25;;;;;;;9.95;1.40;;;;;;;11.77;100.00;101449.09;5046285;28;20502;-84
2022/09/20 09:52:10;;;;;;;6.07;1.20;;;;;;;11.84;100.00;101450.47;5039942;28;20427;-85
2022/09/20 09:54:47;;;;;;;7.60;1.20;;;;;;;11.91;100.00;101442.84;5058945;28;20405;-84
2022/09/20 09:57:52;;;;;;;6.85;1.38;;;;;;;11.98;100.00;101447.25;5039720;28;20439;-85
2022/09/20 10:00:30;;;;;;;8.05;1.45;;;;;;;11.90;100.00;101443.09;5063148;28;20419;-85
2022/09/20 10:03:28;;;;;;;9.07;1.20;;;;;;;11.89;100.00;101442.31;5063688;28;20979;-85
2022/09/20 10:06:07;;;;;;;10.25;1.42;;;;;;;12.00;100.00;101445.06;5045428;28;20446;-82
2022/09/20 10:08:50;;;;;;;6.50;1.13;;;;;;;11.75;100.00;101424.81;5034372;28;20435;-83
2022/09/20 10:11:35;;;;;;;5.82;1.10;;;;;;;11.91;100.00;101434.66;5031894;28;20811;-82
2022/09/20 10:14:24;;;;;;;8.15;1.27;;;;;;;12.17;100.00;101440.19;5029688;28;20431;-83
2022/09/20 10:17:12;;;;;;;6.32;1.10;;;;;;;11.99;100.00;101446.19;5029683;28;20435;-85
2022/09/20 10:20:04;;;;;;;5.53;1.20;;;;;;;12.19;100.00;101439.91;5042665;28;20423;-82
2022/09/20 10:22:46;;;;;;;6.82;1.10;;;;;;;12.30;100.00;101438.81;5072193;28;20428;-83
2022/09/20 10:25:25;;;;;;;7.40;1.30;;;;;;;12.23;100.00;101439.06;5025210;28;20458;-84
2022/09/20 10:28:07;;;;;;;10.98;1.20;;;;;;;12.34;100.00;101448.09;5063677;28;20439;-83
2022/09/20 10:30:55;;;;;;;7.53;1.20;;;;;;;12.36;100.00;101443.19;5045244;28;20417;-82
2022/09/20 10:33:39;;;;;;;9.60;1.00;;;;;;;12.27;100.00;101444.81;5045418;28;20425;-84
2022/09/20 10:36:23;;;;;;;4.82;0.80;;;;;;;12.33;100.00;101443.75;5023338;28;20927;-83
2022/09/20 10:39:03;;;;;;;8.15;1.25;;;;;;;12.26;100.00;101440.44;5055536;28;20430;-84
2022/09/20 10:44:46;;;;;;;6.10;1.10;;;;;;;12.57;100.00;101432.28;5051036;28;20408;-82
2022/09/20 10:47:27;;;;;;;7.70;1.60;;;;;;;12.73;100.00;101441.25;5058887;28;20424;-82
2022/09/20 10:50:11;;;;;;;8.27;1.20;;;;;;;12.66;100.00;101446.16;5039050;28;20514;-84
2022/09/20 10:53:08;;;;;;;5.57;1.00;;;;;;;12.54;100.00;101440.97;5047940;28;20423;-85
2022/09/20 10:55:50;;;;;;;5.32;1.10;;;;;;;12.32;100.00;101444.00;5029939;28;20787;-84
2022/09/20 10:58:54;;;;;;;7.47;1.13;;;;;;;12.59;100.00;101449.19;5048814;28;20424;-86
2022/09/20 11:01:34;;;;;;;6.57;1.20;;;;;;;12.60;100.00;101453.56;5044412;28;20542;-83
2022/09/20 11:04:25;;;;;;;7.63;1.42;;;;;;;12.53;100.00;101456.56;5025782;28;20446;-85
2022/09/20 11:07:10;;;;;;;6.35;1.63;;;;;;;12.64;100.00;101449.19;5027267;28;20436;-86
2022/09/20 11:09:49;;;;;;;7.10;1.08;;;;;;;12.63;100.00;101457.66;5027535;28;20428;-85
2022/09/20 11:12:28;;;;;;;6.53;1.20;;;;;;;12.87;100.00;101450.53;5051204;28;20431;-83
2022/09/20 11:15:05;;;;;;;5.65;1.10;;;;;;;12.86;100.00;101459.81;5045754;28;20424;-84
2022/09/20 11:17:44;;;;;;;6.70;1.08;;;;;;;12.91;100.00;101464.44;5040794;28;20620;-85
2022/09/20 11:20:19;;;;;;;10.23;1.30;;;;;;;12.76;100.00;101459.84;5049226;28;20416;-85
2022/09/20 11:22:52;;;;;;;7.68;1.20;;;;;;;12.83;100.00;101460.34;5027492;28;20427;-86
2022/09/20 11:25:33;;;;;;;10.43;1.17;;;;;;;12.84;100.00;101463.91;5048240;28;22195;-85
2022/09/20 11:28:08;;;;;;;8.02;1.05;;;;;;;13.01;100.00;101469.03;5048341;28;20419;-87
2022/09/20 11:30:49;;;;;;;9.73;1.50;;;;;;;13.03;100.00;101467.69;5046826;28;20428;-84
2022/09/20 11:33:28;;;;;;;6.22;0.98;;;;;;;12.84;100.00;101436.59;5065493;28;20420;-86
2022/09/20 11:35:59;;;;;;;9.95;1.42;;;;;;;13.01;100.00;101474.50;5035124;28;20442;-86
2022/09/20 11:38:41;;;;;;;9.02;1.20;;;;;;;13.08;100.00;101462.22;5059422;28;21038;-82
2022/09/20 11:41:19;;;;;;;6.20;1.23;;;;;;;13.03;100.00;101472.34;5053308;28;20424;-85
2022/09/20 11:43:48;;;;;;;6.18;1.00;;;;;;;13.10;100.00;101478.31;5046469;28;20507;-84
2022/09/20 11:46:27;;;;;;;2.45;0.68;;;;;;;13.09;100.00;101473.94;5054793;28;20434;-83
2022/09/20 11:49:04;;;;;;;4.65;0.90;;;;;;;13.01;100.00;101469.03;5041725;28;20926;-86
2022/09/20 11:52:03;;;;;;;3.55;0.80;;;;;;;13.20;100.00;101472.84;5045353;28;20412;-86
2022/09/20 11:54:57;;;;;;;9.68;1.10;;;;;;;13.26;100.00;101477.19;5045906;28;20427;-83
2022/09/20 11:57:30;;;;;;;6.38;1.02;;;;;;;13.17;100.00;101470.66;5063057;28;20411;-84
2022/09/20 12:00:06;;;;;;;5.13;0.93;;;;;;;12.92;100.00;101461.41;5057649;28;20604;-85
2022/09/20 12:02:46;;;;;;;5.30;0.90;;;;;;;12.95;100.00;101470.16;5035449;28;20424;-85
2022/09/20 12:05:26;;;;;;;2.90;0.70;;;;;;;13.04;100.00;101471.25;5051241;28;20420;-85
2022/09/20 12:07:58;;;;;;;7.45;0.90;;;;;;;12.97;100.00;101449.66;5051807;28;20427;-88
2022/09/20 12:10:36;;;;;;;4.80;1.00;;;;;;;13.09;100.00;101469.31;5057360;28;20480;-85
2022/09/20 12:13:23;;;;;;;6.40;1.15;;;;;;;13.27;100.00;101473.38;5035137;28;20934;-86
2022/09/20 12:16:00;;;;;;;6.63;0.88;;;;;;;13.32;100.00;101480.72;5063353;28;21107;-86
2022/09/20 12:18:47;;;;;;;6.15;1.10;;;;;;;13.46;100.00;101475.50;5048166;28;20404;-87
2022/09/20 12:21:21;;;;;;;4.07;0.95;;;;;;;13.55;100.00;101464.81;5048340;28;20442;-83
2022/09/20 12:24:22;;;;;;;7.50;1.03;;;;;;;13.54;100.00;101474.09;5058566;28;20426;-84
2022/09/20 12:26:59;;;;;;;3.77;0.90;;;;;;;13.39;100.00;101472.25;5042924;28;20424;-82
2022/09/20 12:29:53;;;;;;;4.28;0.98;;;;;;;13.15;100.00;101467.38;5021652;28;20438;-81
2022/09/20 12:32:55;;;;;;;5.57;0.90;;;;;;;13.29;100.00;101467.63;5046823;28;21506;-81
2022/09/20 12:35:54;;;;;;;7.47;1.00;;;;;;;13.41;100.00;101473.63;5026539;28;20442;-81
2022/09/20 12:38:48;;;;;;;4.40;0.80;;;;;;;13.58;100.00;101483.38;5024047;28;20779;-82